sensor_id;sensor_type;location;lat;lon;timestamp;P1;durP1;ratioP1;P2;durP2;ratioP2
2724;SDS011;1370;52.596;13.112;2023-06-22T00:02:03;15.83;;;12.60;;
2724;SDS011;1370;52.596;13.112;2023-06-22T00:04:29;14.33;;;12.77;;
2724;SDS011;1370;52.596;13.112;2023-06-22T00:06:54;13.73;;;12.40;;
2724;SDS011;1370;52.596;13.112;2023-06-22T00:09:19;14.40;;;12.63;;
2724;SDS011;1370;52.596;13.112;2023-06-22T00:11:45;13.10;;;11.80;;
2724;SDS011;1370;52.596;13.112;2023-06-22T00:14:10;14.33;;;12.93;;
2724;SDS011;1370;52.596;13.112;2023-06-22T00:16:35;15.73;;;12.40;;
2724;SDS011;1370;52.596;13.112;2023-06-22T00:19:01;14.90;;;13.60;;
2724;SDS011;1370;52.596;13.112;2023-06-22T00:21:27;13.27;;;12.13;;
2724;SDS011;1370;52.596;13.112;2023-06-22T00:23:52;13.37;;;12.10;;
2724;SDS011;1370;52.596;13.112;2023-06-22T00:26:18;15.17;;;11.63;;
2724;SDS011;1370;52.596;13.112;2023-06-22T00:28:44;15.13;;;12.30;;
2724;SDS011;1370;52.596;13.112;2023-06-22T00:31:09;13.87;;;12.40;;
2724;SDS011;1370;52.596;13.112;2023-06-22T00:33:35;12.67;;;11.40;;
2724;SDS011;1370;52.596;13.112;2023-06-22T00:36:00;12.20;;;11.13;;
2724;SDS011;1370;52.596;13.112;2023-06-22T00:38:27;13.97;;;12.60;;
2724;SDS011;1370;52.596;13.112;2023-06-22T00:40:53;13.30;;;12.20;;
2724;SDS011;1370;52.596;13.112;2023-06-22T00:43:18;13.33;;;11.90;;
2724;SDS011;1370;52.596;13.112;2023-06-22T00:45:44;12.60;;;11.43;;
2724;SDS011;1370;52.596;13.112;2023-06-22T00:48:09;13.63;;;12.20;;
2724;SDS011;1370;52.596;13.112;2023-06-22T00:50:35;14.20;;;12.73;;
2724;SDS011;1370;52.596;13.112;2023-06-22T00:53:01;13.37;;;12.17;;
2724;SDS011;1370;52.596;13.112;2023-06-22T00:55:33;11.87;;;10.83;;
2724;SDS011;1370;52.596;13.112;2023-06-22T00:58:02;17.70;;;11.70;;
2724;SDS011;1370;52.596;13.112;2023-06-22T01:00:30;19.43;;;13.00;;
2724;SDS011;1370;52.596;13.112;2023-06-22T01:02:57;14.63;;;13.20;;
2724;SDS011;1370;52.596;13.112;2023-06-22T01:05:22;16.90;;;12.70;;
2724;SDS011;1370;52.596;13.112;2023-06-22T01:08:04;16.07;;;13.40;;
2724;SDS011;1370;52.596;13.112;2023-06-22T01:10:45;15.47;;;13.97;;
2724;SDS011;1370;52.596;13.112;2023-06-22T01:13:28;15.10;;;13.70;;
2724;SDS011;1370;52.596;13.112;2023-06-22T01:18:55;14.90;;;12.87;;
2724;SDS011;1370;52.596;13.112;2023-06-22T01:21:21;14.80;;;13.30;;
2724;SDS011;1370;52.596;13.112;2023-06-22T01:23:50;13.00;;;11.80;;
2724;SDS011;1370;52.596;13.112;2023-06-22T01:26:37;14.43;;;13.03;;
2724;SDS011;1370;52.596;13.112;2023-06-22T01:29:05;14.17;;;12.90;;
2724;SDS011;1370;52.596;13.112;2023-06-22T01:31:32;15.60;;;12.50;;
2724;SDS011;1370;52.596;13.112;2023-06-22T01:34:00;13.77;;;12.47;;
2724;SDS011;1370;52.596;13.112;2023-06-22T01:36:28;16.10;;;13.43;;
2724;SDS011;1370;52.596;13.112;2023-06-22T01:38:54;22.80;;;13.10;;
2724;SDS011;1370;52.596;13.112;2023-06-22T01:41:20;14.90;;;12.60;;
2724;SDS011;1370;52.596;13.112;2023-06-22T01:43:49;15.20;;;13.73;;
2724;SDS011;1370;52.596;13.112;2023-06-22T01:46:14;13.33;;;12.10;;
2724;SDS011;1370;52.596;13.112;2023-06-22T01:48:40;16.33;;;13.53;;
2724;SDS011;1370;52.596;13.112;2023-06-22T01:51:05;14.77;;;13.17;;
2724;SDS011;1370;52.596;13.112;2023-06-22T01:53:31;15.90;;;11.40;;
2724;SDS011;1370;52.596;13.112;2023-06-22T01:55:56;16.80;;;13.70;;
2724;SDS011;1370;52.596;13.112;2023-06-22T01:58:26;13.87;;;12.57;;
2724;SDS011;1370;52.596;13.112;2023-06-22T02:00:54;20.63;;;13.30;;
2724;SDS011;1370;52.596;13.112;2023-06-22T02:03:23;13.27;;;11.60;;
2724;SDS011;1370;52.596;13.112;2023-06-22T02:05:53;15.67;;;14.23;;
2724;SDS011;1370;52.596;13.112;2023-06-22T02:08:25;16.70;;;14.97;;
2724;SDS011;1370;52.596;13.112;2023-06-22T02:10:53;15.07;;;13.20;;
2724;SDS011;1370;52.596;13.112;2023-06-22T02:13:20;15.43;;;12.67;;
2724;SDS011;1370;52.596;13.112;2023-06-22T02:15:45;13.60;;;12.30;;
2724;SDS011;1370;52.596;13.112;2023-06-22T02:18:11;13.20;;;11.20;;
2724;SDS011;1370;52.596;13.112;2023-06-22T02:20:38;15.33;;;13.93;;
2724;SDS011;1370;52.596;13.112;2023-06-22T02:23:04;15.30;;;13.80;;
2724;SDS011;1370;52.596;13.112;2023-06-22T02:25:30;16.17;;;13.17;;
2724;SDS011;1370;52.596;13.112;2023-06-22T02:27:56;14.17;;;12.73;;
2724;SDS011;1370;52.596;13.112;2023-06-22T02:30:22;14.43;;;12.90;;
2724;SDS011;1370;52.596;13.112;2023-06-22T02:32:47;15.97;;;14.37;;
2724;SDS011;1370;52.596;13.112;2023-06-22T02:35:12;15.67;;;12.70;;
2724;SDS011;1370;52.596;13.112;2023-06-22T02:37:38;14.57;;;13.07;;
2724;SDS011;1370;52.596;13.112;2023-06-22T02:40:06;14.87;;;12.67;;
2724;SDS011;1370;52.596;13.112;2023-06-22T02:42:35;12.97;;;11.70;;
2724;SDS011;1370;52.596;13.112;2023-06-22T02:45:01;12.70;;;11.60;;
2724;SDS011;1370;52.596;13.112;2023-06-22T02:47:26;14.20;;;12.80;;
2724;SDS011;1370;52.596;13.112;2023-06-22T02:49:51;14.53;;;13.13;;
2724;SDS011;1370;52.596;13.112;2023-06-22T02:52:16;14.27;;;12.87;;
2724;SDS011;1370;52.596;13.112;2023-06-22T02:54:42;15.70;;;13.53;;
2724;SDS011;1370;52.596;13.112;2023-06-22T02:57:07;17.93;;;13.50;;
2724;SDS011;1370;52.596;13.112;2023-06-22T02:59:39;16.50;;;12.70;;
2724;SDS011;1370;52.596;13.112;2023-06-22T03:02:06;16.53;;;13.50;;
2724;SDS011;1370;52.596;13.112;2023-06-22T03:04:32;15.57;;;13.97;;
2724;SDS011;1370;52.596;13.112;2023-06-22T03:06:57;16.33;;;13.70;;
2724;SDS011;1370;52.596;13.112;2023-06-22T03:09:26;14.93;;;13.50;;
2724;SDS011;1370;52.596;13.112;2023-06-22T03:11:54;14.10;;;12.87;;
2724;SDS011;1370;52.596;13.112;2023-06-22T03:14:19;14.80;;;13.17;;
2724;SDS011;1370;52.596;13.112;2023-06-22T03:16:45;14.00;;;12.70;;
2724;SDS011;1370;52.596;13.112;2023-06-22T03:19:10;15.10;;;13.50;;
2724;SDS011;1370;52.596;13.112;2023-06-22T03:21:37;15.77;;;14.17;;
2724;SDS011;1370;52.596;13.112;2023-06-22T03:24:03;17.10;;;14.30;;
2724;SDS011;1370;52.596;13.112;2023-06-22T03:26:29;14.80;;;13.40;;
2724;SDS011;1370;52.596;13.112;2023-06-22T03:28:54;16.17;;;13.10;;
2724;SDS011;1370;52.596;13.112;2023-06-22T03:31:20;15.90;;;14.03;;
2724;SDS011;1370;52.596;13.112;2023-06-22T03:33:46;17.17;;;13.80;;
2724;SDS011;1370;52.596;13.112;2023-06-22T03:36:13;14.63;;;13.40;;
2724;SDS011;1370;52.596;13.112;2023-06-22T03:38:38;15.67;;;14.17;;
2724;SDS011;1370;52.596;13.112;2023-06-22T03:41:03;14.00;;;12.70;;
2724;SDS011;1370;52.596;13.112;2023-06-22T03:43:29;16.90;;;15.10;;
2724;SDS011;1370;52.596;13.112;2023-06-22T03:45:54;15.13;;;13.57;;
2724;SDS011;1370;52.596;13.112;2023-06-22T03:48:19;15.53;;;13.93;;
2724;SDS011;1370;52.596;13.112;2023-06-22T03:50:44;20.23;;;14.70;;
2724;SDS011;1370;52.596;13.112;2023-06-22T03:53:10;17.23;;;14.87;;
2724;SDS011;1370;52.596;13.112;2023-06-22T03:55:35;14.43;;;13.07;;
2724;SDS011;1370;52.596;13.112;2023-06-22T03:58:01;15.33;;;13.73;;
2724;SDS011;1370;52.596;13.112;2023-06-22T04:00:31;15.70;;;14.10;;
2724;SDS011;1370;52.596;13.112;2023-06-22T04:02:57;17.47;;;14.70;;
2724;SDS011;1370;52.596;13.112;2023-06-22T04:05:22;14.53;;;13.13;;
2724;SDS011;1370;52.596;13.112;2023-06-22T04:07:48;16.17;;;14.47;;
2724;SDS011;1370;52.596;13.112;2023-06-22T04:10:13;18.30;;;15.17;;
2724;SDS011;1370;52.596;13.112;2023-06-22T04:12:38;16.40;;;13.17;;
2724;SDS011;1370;52.596;13.112;2023-06-22T04:15:04;15.73;;;14.20;;
2724;SDS011;1370;52.596;13.112;2023-06-22T04:17:29;15.20;;;13.80;;
2724;SDS011;1370;52.596;13.112;2023-06-22T04:19:54;16.00;;;14.30;;
2724;SDS011;1370;52.596;13.112;2023-06-22T04:22:20;17.53;;;15.20;;
2724;SDS011;1370;52.596;13.112;2023-06-22T04:24:45;23.13;;;14.50;;
2724;SDS011;1370;52.596;13.112;2023-06-22T04:27:10;16.77;;;15.27;;
2724;SDS011;1370;52.596;13.112;2023-06-22T04:29:36;19.53;;;15.40;;
2724;SDS011;1370;52.596;13.112;2023-06-22T04:32:03;16.20;;;14.60;;
2724;SDS011;1370;52.596;13.112;2023-06-22T04:34:30;15.33;;;13.80;;
2724;SDS011;1370;52.596;13.112;2023-06-22T04:36:56;17.20;;;15.40;;
2724;SDS011;1370;52.596;13.112;2023-06-22T04:39:21;16.80;;;15.20;;
2724;SDS011;1370;52.596;13.112;2023-06-22T04:41:47;17.97;;;15.03;;
2724;SDS011;1370;52.596;13.112;2023-06-22T04:44:16;15.87;;;14.37;;
2724;SDS011;1370;52.596;13.112;2023-06-22T04:46:53;17.40;;;15.40;;
2724;SDS011;1370;52.596;13.112;2023-06-22T04:49:25;17.03;;;14.83;;
2724;SDS011;1370;52.596;13.112;2023-06-22T04:51:57;20.23;;;15.57;;
2724;SDS011;1370;52.596;13.112;2023-06-22T04:54:22;18.43;;;15.17;;
2724;SDS011;1370;52.596;13.112;2023-06-22T04:56:48;15.20;;;13.80;;
2724;SDS011;1370;52.596;13.112;2023-06-22T04:59:21;15.20;;;13.30;;
2724;SDS011;1370;52.596;13.112;2023-06-22T05:01:46;13.90;;;12.50;;
2724;SDS011;1370;52.596;13.112;2023-06-22T05:04:12;15.27;;;12.73;;
2724;SDS011;1370;52.596;13.112;2023-06-22T05:06:37;15.70;;;14.17;;
2724;SDS011;1370;52.596;13.112;2023-06-22T05:09:02;16.50;;;14.90;;
2724;SDS011;1370;52.596;13.112;2023-06-22T05:11:28;17.37;;;12.97;;
2724;SDS011;1370;52.596;13.112;2023-06-22T05:13:54;15.60;;;14.10;;
2724;SDS011;1370;52.596;13.112;2023-06-22T05:16:19;15.10;;;12.07;;
2724;SDS011;1370;52.596;13.112;2023-06-22T05:18:51;16.40;;;14.00;;
2724;SDS011;1370;52.596;13.112;2023-06-22T05:21:21;14.27;;;12.90;;
2724;SDS011;1370;52.596;13.112;2023-06-22T05:23:48;14.70;;;11.90;;
2724;SDS011;1370;52.596;13.112;2023-06-22T05:26:13;12.37;;;11.07;;
2724;SDS011;1370;52.596;13.112;2023-06-22T05:28:38;11.80;;;10.40;;
2724;SDS011;1370;52.596;13.112;2023-06-22T05:31:03;16.70;;;12.00;;
2724;SDS011;1370;52.596;13.112;2023-06-22T05:33:29;17.53;;;13.33;;
2724;SDS011;1370;52.596;13.112;2023-06-22T05:35:54;18.50;;;12.10;;
2724;SDS011;1370;52.596;13.112;2023-06-22T05:38:19;12.73;;;11.50;;
2724;SDS011;1370;52.596;13.112;2023-06-22T05:40:45;13.50;;;11.63;;
2724;SDS011;1370;52.596;13.112;2023-06-22T05:43:10;39.27;;;31.83;;
2724;SDS011;1370;52.596;13.112;2023-06-22T05:45:35;117.77;;;100.93;;
2724;SDS011;1370;52.596;13.112;2023-06-22T05:48:01;19.20;;;16.60;;
2724;SDS011;1370;52.596;13.112;2023-06-22T05:50:26;32.90;;;18.23;;
2724;SDS011;1370;52.596;13.112;2023-06-22T05:52:51;19.20;;;12.53;;
2724;SDS011;1370;52.596;13.112;2023-06-22T05:55:17;11.40;;;9.70;;
2724;SDS011;1370;52.596;13.112;2023-06-22T05:57:43;10.57;;;9.70;;
2724;SDS011;1370;52.596;13.112;2023-06-22T06:00:09;9.67;;;8.77;;
2724;SDS011;1370;52.596;13.112;2023-06-22T06:02:36;10.10;;;9.30;;
2724;SDS011;1370;52.596;13.112;2023-06-22T06:05:01;9.93;;;8.97;;
2724;SDS011;1370;52.596;13.112;2023-06-22T06:07:28;10.73;;;9.90;;
2724;SDS011;1370;52.596;13.112;2023-06-22T06:09:53;10.03;;;9.13;;
2724;SDS011;1370;52.596;13.112;2023-06-22T06:12:18;10.00;;;8.67;;
2724;SDS011;1370;52.596;13.112;2023-06-22T06:14:44;8.33;;;7.63;;
2724;SDS011;1370;52.596;13.112;2023-06-22T06:17:09;10.27;;;9.40;;
2724;SDS011;1370;52.596;13.112;2023-06-22T06:19:34;8.80;;;7.63;;
2724;SDS011;1370;52.596;13.112;2023-06-22T06:22:00;7.80;;;7.20;;
2724;SDS011;1370;52.596;13.112;2023-06-22T06:24:25;7.20;;;6.60;;
2724;SDS011;1370;52.596;13.112;2023-06-22T06:26:51;7.97;;;7.10;;
2724;SDS011;1370;52.596;13.112;2023-06-22T06:29:19;7.10;;;6.60;;
2724;SDS011;1370;52.596;13.112;2023-06-22T06:31:44;6.37;;;5.90;;
2724;SDS011;1370;52.596;13.112;2023-06-22T06:34:09;7.13;;;6.60;;
2724;SDS011;1370;52.596;13.112;2023-06-22T06:36:34;9.57;;;6.80;;
2724;SDS011;1370;52.596;13.112;2023-06-22T06:39:00;7.13;;;6.33;;
2724;SDS011;1370;52.596;13.112;2023-06-22T06:41:25;5.50;;;5.10;;
2724;SDS011;1370;52.596;13.112;2023-06-22T06:43:50;9.47;;;6.37;;
2724;SDS011;1370;52.596;13.112;2023-06-22T06:46:16;6.80;;;6.00;;
2724;SDS011;1370;52.596;13.112;2023-06-22T06:48:43;7.07;;;6.10;;
2724;SDS011;1370;52.596;13.112;2023-06-22T06:51:08;5.70;;;5.30;;
2724;SDS011;1370;52.596;13.112;2023-06-22T06:53:34;5.40;;;5.00;;
2724;SDS011;1370;52.596;13.112;2023-06-22T06:56:00;5.80;;;4.50;;
2724;SDS011;1370;52.596;13.112;2023-06-22T06:58:26;4.97;;;4.67;;
2724;SDS011;1370;52.596;13.112;2023-06-22T07:00:51;5.43;;;5.13;;
2724;SDS011;1370;52.596;13.112;2023-06-22T07:03:16;5.47;;;3.93;;
2724;SDS011;1370;52.596;13.112;2023-06-22T07:05:42;4.73;;;4.33;;
2724;SDS011;1370;52.596;13.112;2023-06-22T07:08:07;4.87;;;4.40;;
2724;SDS011;1370;52.596;13.112;2023-06-22T07:10:32;4.83;;;4.37;;
2724;SDS011;1370;52.596;13.112;2023-06-22T07:12:58;8.80;;;4.67;;
2724;SDS011;1370;52.596;13.112;2023-06-22T07:15:23;4.03;;;3.73;;
2724;SDS011;1370;52.596;13.112;2023-06-22T07:17:49;4.20;;;3.60;;
2724;SDS011;1370;52.596;13.112;2023-06-22T07:20:14;6.10;;;3.77;;
2724;SDS011;1370;52.596;13.112;2023-06-22T07:22:39;4.33;;;3.93;;
2724;SDS011;1370;52.596;13.112;2023-06-22T07:25:09;3.77;;;3.47;;
2724;SDS011;1370;52.596;13.112;2023-06-22T07:27:38;4.10;;;3.70;;
2724;SDS011;1370;52.596;13.112;2023-06-22T07:30:07;3.43;;;3.13;;
2724;SDS011;1370;52.596;13.112;2023-06-22T07:32:36;3.40;;;3.20;;
2724;SDS011;1370;52.596;13.112;2023-06-22T07:35:01;3.93;;;3.63;;
2724;SDS011;1370;52.596;13.112;2023-06-22T07:37:27;3.77;;;3.47;;
2724;SDS011;1370;52.596;13.112;2023-06-22T07:39:53;3.80;;;3.50;;
2724;SDS011;1370;52.596;13.112;2023-06-22T07:42:23;3.73;;;3.43;;
2724;SDS011;1370;52.596;13.112;2023-06-22T07:44:49;3.10;;;2.80;;
2724;SDS011;1370;52.596;13.112;2023-06-22T07:47:15;4.10;;;3.80;;
2724;SDS011;1370;52.596;13.112;2023-06-22T07:49:42;3.50;;;3.30;;
2724;SDS011;1370;52.596;13.112;2023-06-22T07:52:08;3.87;;;3.57;;
2724;SDS011;1370;52.596;13.112;2023-06-22T07:54:33;5.23;;;3.70;;
2724;SDS011;1370;52.596;13.112;2023-06-22T07:57:01;3.43;;;3.13;;
2724;SDS011;1370;52.596;13.112;2023-06-22T07:59:26;6.20;;;3.20;;
2724;SDS011;1370;52.596;13.112;2023-06-22T08:01:51;4.07;;;3.67;;
2724;SDS011;1370;52.596;13.112;2023-06-22T08:04:17;3.83;;;3.60;;
2724;SDS011;1370;52.596;13.112;2023-06-22T08:06:42;3.50;;;3.20;;
2724;SDS011;1370;52.596;13.112;2023-06-22T08:09:08;7.47;;;4.00;;
2724;SDS011;1370;52.596;13.112;2023-06-22T08:11:33;4.50;;;3.13;;
2724;SDS011;1370;52.596;13.112;2023-06-22T08:13:59;3.90;;;3.57;;
2724;SDS011;1370;52.596;13.112;2023-06-22T08:16:24;4.23;;;3.27;;
2724;SDS011;1370;52.596;13.112;2023-06-22T08:18:50;5.80;;;3.40;;
2724;SDS011;1370;52.596;13.112;2023-06-22T08:21:15;3.17;;;2.97;;
2724;SDS011;1370;52.596;13.112;2023-06-22T08:23:40;3.47;;;2.93;;
2724;SDS011;1370;52.596;13.112;2023-06-22T08:26:05;2.63;;;2.40;;
2724;SDS011;1370;52.596;13.112;2023-06-22T08:28:31;4.73;;;3.50;;
2724;SDS011;1370;52.596;13.112;2023-06-22T08:30:56;7.60;;;4.40;;
2724;SDS011;1370;52.596;13.112;2023-06-22T08:33:21;3.80;;;3.50;;
2724;SDS011;1370;52.596;13.112;2023-06-22T08:35:53;4.60;;;3.53;;
2724;SDS011;1370;52.596;13.112;2023-06-22T08:38:19;3.57;;;3.30;;
2724;SDS011;1370;52.596;13.112;2023-06-22T08:40:45;6.10;;;3.33;;
2724;SDS011;1370;52.596;13.112;2023-06-22T08:43:10;9.13;;;3.50;;
2724;SDS011;1370;52.596;13.112;2023-06-22T08:45:35;5.03;;;2.80;;
2724;SDS011;1370;52.596;13.112;2023-06-22T08:48:01;3.83;;;3.53;;
2724;SDS011;1370;52.596;13.112;2023-06-22T08:50:26;6.53;;;3.53;;
2724;SDS011;1370;52.596;13.112;2023-06-22T08:52:51;3.50;;;3.20;;
2724;SDS011;1370;52.596;13.112;2023-06-22T08:55:17;4.97;;;4.27;;
2724;SDS011;1370;52.596;13.112;2023-06-22T08:57:42;3.53;;;3.27;;
2724;SDS011;1370;52.596;13.112;2023-06-22T09:00:08;4.53;;;2.97;;
2724;SDS011;1370;52.596;13.112;2023-06-22T09:02:41;3.60;;;2.80;;
2724;SDS011;1370;52.596;13.112;2023-06-22T09:05:06;5.50;;;3.53;;
2724;SDS011;1370;52.596;13.112;2023-06-22T09:07:31;4.13;;;3.73;;
2724;SDS011;1370;52.596;13.112;2023-06-22T09:09:57;4.30;;;3.90;;
2724;SDS011;1370;52.596;13.112;2023-06-22T09:12:22;3.80;;;3.50;;
2724;SDS011;1370;52.596;13.112;2023-06-22T09:14:50;3.30;;;3.00;;
2724;SDS011;1370;52.596;13.112;2023-06-22T09:17:16;5.97;;;3.20;;
2724;SDS011;1370;52.596;13.112;2023-06-22T09:19:41;4.47;;;3.83;;
2724;SDS011;1370;52.596;13.112;2023-06-22T09:22:06;3.53;;;3.23;;
2724;SDS011;1370;52.596;13.112;2023-06-22T09:24:32;3.53;;;3.23;;
2724;SDS011;1370;52.596;13.112;2023-06-22T09:26:57;5.73;;;3.30;;
2724;SDS011;1370;52.596;13.112;2023-06-22T09:29:23;8.70;;;3.13;;
2724;SDS011;1370;52.596;13.112;2023-06-22T09:31:48;3.93;;;2.93;;
2724;SDS011;1370;52.596;13.112;2023-06-22T09:34:14;4.17;;;3.40;;
2724;SDS011;1370;52.596;13.112;2023-06-22T09:36:40;4.20;;;3.90;;
2724;SDS011;1370;52.596;13.112;2023-06-22T09:39:06;6.53;;;4.10;;
2724;SDS011;1370;52.596;13.112;2023-06-22T09:41:31;5.20;;;3.43;;
2724;SDS011;1370;52.596;13.112;2023-06-22T09:43:57;3.70;;;3.30;;
2724;SDS011;1370;52.596;13.112;2023-06-22T09:46:22;3.60;;;3.30;;
2724;SDS011;1370;52.596;13.112;2023-06-22T09:48:50;4.53;;;4.23;;
2724;SDS011;1370;52.596;13.112;2023-06-22T09:51:15;3.57;;;3.20;;
2724;SDS011;1370;52.596;13.112;2023-06-22T09:53:40;7.10;;;3.97;;
2724;SDS011;1370;52.596;13.112;2023-06-22T09:56:06;3.73;;;3.43;;
2724;SDS011;1370;52.596;13.112;2023-06-22T09:58:31;4.57;;;3.77;;
2724;SDS011;1370;52.596;13.112;2023-06-22T10:00:56;5.80;;;3.77;;
2724;SDS011;1370;52.596;13.112;2023-06-22T10:03:22;5.00;;;4.13;;
2724;SDS011;1370;52.596;13.112;2023-06-22T10:05:47;3.33;;;3.03;;
2724;SDS011;1370;52.596;13.112;2023-06-22T10:08:13;5.70;;;3.03;;
2724;SDS011;1370;52.596;13.112;2023-06-22T10:10:38;6.43;;;4.13;;
2724;SDS011;1370;52.596;13.112;2023-06-22T10:13:10;4.80;;;4.30;;
2724;SDS011;1370;52.596;13.112;2023-06-22T10:15:35;6.13;;;4.30;;
2724;SDS011;1370;52.596;13.112;2023-06-22T10:18:01;5.00;;;3.83;;
2724;SDS011;1370;52.596;13.112;2023-06-22T10:20:26;4.80;;;4.33;;
2724;SDS011;1370;52.596;13.112;2023-06-22T10:22:53;4.30;;;3.53;;
2724;SDS011;1370;52.596;13.112;2023-06-22T10:25:18;4.40;;;4.03;;
2724;SDS011;1370;52.596;13.112;2023-06-22T10:27:44;5.23;;;4.70;;
2724;SDS011;1370;52.596;13.112;2023-06-22T10:30:10;4.87;;;4.47;;
2724;SDS011;1370;52.596;13.112;2023-06-22T10:32:37;5.37;;;4.33;;
2724;SDS011;1370;52.596;13.112;2023-06-22T10:35:03;5.80;;;4.63;;
2724;SDS011;1370;52.596;13.112;2023-06-22T10:37:29;5.23;;;4.73;;
2724;SDS011;1370;52.596;13.112;2023-06-22T10:39:54;5.20;;;4.80;;
2724;SDS011;1370;52.596;13.112;2023-06-22T10:42:20;8.10;;;5.50;;
2724;SDS011;1370;52.596;13.112;2023-06-22T10:44:45;21.63;;;7.00;;
2724;SDS011;1370;52.596;13.112;2023-06-22T10:47:11;5.93;;;5.43;;
2724;SDS011;1370;52.596;13.112;2023-06-22T10:49:40;5.27;;;4.77;;
2724;SDS011;1370;52.596;13.112;2023-06-22T10:52:06;5.90;;;4.40;;
2724;SDS011;1370;52.596;13.112;2023-06-22T10:54:32;5.00;;;4.50;;
2724;SDS011;1370;52.596;13.112;2023-06-22T10:56:58;5.30;;;4.90;;
2724;SDS011;1370;52.596;13.112;2023-06-22T10:59:24;5.50;;;5.00;;
2724;SDS011;1370;52.596;13.112;2023-06-22T11:01:50;5.17;;;4.53;;
2724;SDS011;1370;52.596;13.112;2023-06-22T11:04:16;5.87;;;4.50;;
2724;SDS011;1370;52.596;13.112;2023-06-22T11:06:42;6.33;;;5.50;;
2724;SDS011;1370;52.596;13.112;2023-06-22T11:09:07;6.30;;;4.70;;
2724;SDS011;1370;52.596;13.112;2023-06-22T11:11:33;5.80;;;5.10;;
2724;SDS011;1370;52.596;13.112;2023-06-22T11:13:58;5.63;;;5.13;;
2724;SDS011;1370;52.596;13.112;2023-06-22T11:16:23;5.90;;;5.40;;
2724;SDS011;1370;52.596;13.112;2023-06-22T11:18:48;6.27;;;5.77;;
2724;SDS011;1370;52.596;13.112;2023-06-22T11:21:14;6.43;;;4.40;;
2724;SDS011;1370;52.596;13.112;2023-06-22T11:23:39;4.93;;;4.43;;
2724;SDS011;1370;52.596;13.112;2023-06-22T11:26:04;4.50;;;4.10;;
2724;SDS011;1370;52.596;13.112;2023-06-22T11:28:30;5.23;;;4.83;;
2724;SDS011;1370;52.596;13.112;2023-06-22T11:30:55;6.00;;;5.43;;
2724;SDS011;1370;52.596;13.112;2023-06-22T11:33:20;5.60;;;5.20;;
2724;SDS011;1370;52.596;13.112;2023-06-22T11:35:45;5.97;;;4.33;;
2724;SDS011;1370;52.596;13.112;2023-06-22T11:38:11;6.10;;;5.60;;
2724;SDS011;1370;52.596;13.112;2023-06-22T11:40:36;4.77;;;4.37;;
2724;SDS011;1370;52.596;13.112;2023-06-22T11:43:01;5.60;;;4.33;;
2724;SDS011;1370;52.596;13.112;2023-06-22T11:45:27;5.90;;;5.40;;
2724;SDS011;1370;52.596;13.112;2023-06-22T11:47:52;6.20;;;5.57;;
2724;SDS011;1370;52.596;13.112;2023-06-22T11:50:18;6.73;;;6.00;;
2724;SDS011;1370;52.596;13.112;2023-06-22T11:52:43;4.60;;;4.30;;
2724;SDS011;1370;52.596;13.112;2023-06-22T11:55:08;5.07;;;4.57;;
2724;SDS011;1370;52.596;13.112;2023-06-22T11:57:35;5.93;;;4.60;;
2724;SDS011;1370;52.596;13.112;2023-06-22T12:00:01;5.97;;;5.33;;
2724;SDS011;1370;52.596;13.112;2023-06-22T12:02:31;5.90;;;5.40;;
2724;SDS011;1370;52.596;13.112;2023-06-22T12:04:56;7.50;;;5.37;;
2724;SDS011;1370;52.596;13.112;2023-06-22T12:07:23;5.03;;;4.63;;
2724;SDS011;1370;52.596;13.112;2023-06-22T12:09:48;9.13;;;5.80;;
2724;SDS011;1370;52.596;13.112;2023-06-22T12:12:13;5.83;;;5.40;;
2724;SDS011;1370;52.596;13.112;2023-06-22T12:14:38;6.33;;;5.73;;
2724;SDS011;1370;52.596;13.112;2023-06-22T12:17:04;5.63;;;5.13;;
2724;SDS011;1370;52.596;13.112;2023-06-22T12:19:29;4.73;;;4.33;;
2724;SDS011;1370;52.596;13.112;2023-06-22T12:21:54;8.23;;;6.37;;
2724;SDS011;1370;52.596;13.112;2023-06-22T12:24:20;6.33;;;5.63;;
2724;SDS011;1370;52.596;13.112;2023-06-22T12:26:45;6.10;;;5.50;;
2724;SDS011;1370;52.596;13.112;2023-06-22T12:29:10;6.30;;;5.67;;
2724;SDS011;1370;52.596;13.112;2023-06-22T12:31:36;6.30;;;5.70;;
2724;SDS011;1370;52.596;13.112;2023-06-22T12:34:03;6.37;;;5.87;;
2724;SDS011;1370;52.596;13.112;2023-06-22T12:36:28;5.93;;;5.50;;
2724;SDS011;1370;52.596;13.112;2023-06-22T12:38:54;5.80;;;5.20;;
2724;SDS011;1370;52.596;13.112;2023-06-22T12:41:19;6.63;;;5.30;;
2724;SDS011;1370;52.596;13.112;2023-06-22T12:43:44;6.53;;;5.83;;
2724;SDS011;1370;52.596;13.112;2023-06-22T12:46:10;8.37;;;5.80;;
2724;SDS011;1370;52.596;13.112;2023-06-22T12:48:35;6.80;;;6.27;;
2724;SDS011;1370;52.596;13.112;2023-06-22T12:51:06;6.10;;;5.50;;
2724;SDS011;1370;52.596;13.112;2023-06-22T12:53:31;5.50;;;5.00;;
2724;SDS011;1370;52.596;13.112;2023-06-22T12:55:57;5.53;;;5.03;;
2724;SDS011;1370;52.596;13.112;2023-06-22T12:58:23;6.00;;;4.63;;
2724;SDS011;1370;52.596;13.112;2023-06-22T13:00:48;6.33;;;5.83;;
2724;SDS011;1370;52.596;13.112;2023-06-22T13:03:14;7.13;;;4.90;;
2724;SDS011;1370;52.596;13.112;2023-06-22T13:05:39;5.77;;;5.27;;
2724;SDS011;1370;52.596;13.112;2023-06-22T13:08:04;6.33;;;4.90;;
2724;SDS011;1370;52.596;13.112;2023-06-22T13:10:30;8.03;;;6.30;;
2724;SDS011;1370;52.596;13.112;2023-06-22T13:12:56;6.33;;;5.30;;
2724;SDS011;1370;52.596;13.112;2023-06-22T13:15:25;5.90;;;5.30;;
2724;SDS011;1370;52.596;13.112;2023-06-22T13:17:51;9.60;;;6.80;;
2724;SDS011;1370;52.596;13.112;2023-06-22T13:20:17;7.50;;;5.87;;
2724;SDS011;1370;52.596;13.112;2023-06-22T13:22:42;8.63;;;6.00;;
2724;SDS011;1370;52.596;13.112;2023-06-22T13:25:09;9.83;;;7.37;;
2724;SDS011;1370;52.596;13.112;2023-06-22T13:27:37;5.83;;;5.33;;
2724;SDS011;1370;52.596;13.112;2023-06-22T13:30:05;6.23;;;5.47;;
2724;SDS011;1370;52.596;13.112;2023-06-22T13:32:31;8.33;;;5.83;;
2724;SDS011;1370;52.596;13.112;2023-06-22T13:34:57;8.97;;;5.50;;
2724;SDS011;1370;52.596;13.112;2023-06-22T13:37:23;5.80;;;5.10;;
2724;SDS011;1370;52.596;13.112;2023-06-22T13:39:48;5.60;;;5.07;;
2724;SDS011;1370;52.596;13.112;2023-06-22T13:42:13;5.87;;;5.37;;
2724;SDS011;1370;52.596;13.112;2023-06-22T13:44:39;10.23;;;6.30;;
2724;SDS011;1370;52.596;13.112;2023-06-22T13:47:04;6.37;;;5.70;;
2724;SDS011;1370;52.596;13.112;2023-06-22T13:49:30;6.53;;;5.83;;
2724;SDS011;1370;52.596;13.112;2023-06-22T13:51:55;7.13;;;6.10;;
2724;SDS011;1370;52.596;13.112;2023-06-22T13:54:20;5.50;;;4.93;;
2724;SDS011;1370;52.596;13.112;2023-06-22T13:56:46;9.50;;;6.63;;
2724;SDS011;1370;52.596;13.112;2023-06-22T13:59:11;6.40;;;5.87;;
2724;SDS011;1370;52.596;13.112;2023-06-22T14:01:37;7.33;;;6.60;;
2724;SDS011;1370;52.596;13.112;2023-06-22T14:04:04;6.87;;;6.20;;
2724;SDS011;1370;52.596;13.112;2023-06-22T14:06:30;8.77;;;7.10;;
2724;SDS011;1370;52.596;13.112;2023-06-22T14:08:55;8.10;;;6.47;;
2724;SDS011;1370;52.596;13.112;2023-06-22T14:11:21;7.33;;;6.67;;
2724;SDS011;1370;52.596;13.112;2023-06-22T14:13:46;7.30;;;6.60;;
2724;SDS011;1370;52.596;13.112;2023-06-22T14:16:11;6.50;;;5.93;;
2724;SDS011;1370;52.596;13.112;2023-06-22T14:18:37;6.50;;;5.90;;
2724;SDS011;1370;52.596;13.112;2023-06-22T14:21:02;8.93;;;6.93;;
2724;SDS011;1370;52.596;13.112;2023-06-22T14:23:28;7.97;;;6.73;;
2724;SDS011;1370;52.596;13.112;2023-06-22T14:25:53;8.10;;;6.47;;
2724;SDS011;1370;52.596;13.112;2023-06-22T14:28:18;8.47;;;5.47;;
2724;SDS011;1370;52.596;13.112;2023-06-22T14:30:44;6.90;;;6.30;;
2724;SDS011;1370;52.596;13.112;2023-06-22T14:33:09;6.57;;;5.97;;
2724;SDS011;1370;52.596;13.112;2023-06-22T14:35:34;7.60;;;6.00;;
2724;SDS011;1370;52.596;13.112;2023-06-22T14:38:00;6.90;;;6.20;;
2724;SDS011;1370;52.596;13.112;2023-06-22T14:40:25;6.90;;;6.30;;
2724;SDS011;1370;52.596;13.112;2023-06-22T14:42:50;5.83;;;5.33;;
2724;SDS011;1370;52.596;13.112;2023-06-22T14:45:16;6.90;;;6.20;;
2724;SDS011;1370;52.596;13.112;2023-06-22T14:47:41;7.87;;;6.70;;